If you wish to contribute or participate in the discussions about articles you are invited to join SKYbrary as a registered user

 Actions

Akhiok Airport

From SKYbrary Wiki

PAKH
Airport
ICAO: PAKH – IATA: AKK
Summary
Name Akhiok Airport
Region North America
Territory Alaska US.gif
Location , Alaska
Serving Akhiok
Elevation 13.411 m
44 ft
44 ft13.411 m
Type small airport
Coordinates 56° 56' 18.9996", -154° 10' 57"
Close to Gulf Of Alaska
Runways
Designator Length Width Surface ROPS
4/22 951 m3,120.079 ft 15 m49.213 ft GRAVEL-G /
METAR
Observation PAKH 131403Z AUTO 23011KT 10SM SCT008 OVC013 04/03 A2932 RMK AO2 $
Station AKHIOK
Date/Time 13 December 2017 14:03:00
Wind direction 230°
Wind speed 11 kts
Lowest cloud amount scattered clouds
Temperature 4°C
Dew point 3°C
Humidity 93%
QNH hPa
Weather condition n/a